Time;durP1;ratioP1;P1;durP2;ratioP2;P2;SDS_P1;SDS_P2;PMS_P1;PMS_P2;Temp;Humidity;BMP_temperature;BMP_pressure;BME280_temperature;BME280_humidity;BME280_pressure;Samples;Min_cycle;Max_cycle;Signal;HPM_P1;HPM_P2
2021/10/24 00:01:47;;;;;;;47.38;25.02;;;0.70;99.90;;;;;;6318379;22;20345;-88
2021/10/24 00:04:37;;;;;;;49.15;27.02;;;0.70;99.90;;;;;;6320002;22;20023;-88
2021/10/24 00:07:25;;;;;;;51.22;26.02;;;0.70;99.90;;;;;;6317121;22;20288;-88
2021/10/24 00:10:15;;;;;;;55.20;26.80;;;0.60;99.90;;;;;;6309301;22;20031;-87
2021/10/24 00:13:05;;;;;;;47.28;26.02;;;0.60;99.90;;;;;;6285928;22;20042;-87
2021/10/24 00:15:52;;;;;;;53.75;26.65;;;0.60;99.90;;;;;;6306607;22;20084;-88
2021/10/24 00:18:39;;;;;;;52.15;27.02;;;0.50;99.90;;;;;;6303399;22;20284;-89
2021/10/24 00:21:27;;;;;;;52.67;27.13;;;0.60;99.90;;;;;;6290784;22;20104;-88
2021/10/24 00:24:16;;;;;;;59.50;28.92;;;0.60;99.90;;;;;;6303554;22;20042;-88
2021/10/24 00:27:08;;;;;;;50.67;28.05;;;0.70;99.90;;;;;;6305077;22;20023;-87
2021/10/24 00:29:55;;;;;;;52.65;26.75;;;0.70;99.90;;;;;;6282290;22;20106;-88
2021/10/24 00:32:43;;;;;;;52.33;26.95;;;0.60;99.90;;;;;;6283328;22;20023;-88
2021/10/24 00:35:34;;;;;;;47.95;27.27;;;0.60;99.90;;;;;;6280761;22;20030;-87
2021/10/24 00:38:21;;;;;;;51.40;27.02;;;0.60;99.90;;;;;;6283225;22;20167;-88
2021/10/24 00:41:08;;;;;;;57.38;27.83;;;0.50;99.90;;;;;;6306631;22;20024;-88
2021/10/24 00:43:55;;;;;;;48.90;25.27;;;0.50;99.90;;;;;;6304274;22;20126;-88
2021/10/24 00:46:47;;;;;;;49.83;25.60;;;0.50;99.90;;;;;;6305600;22;20096;-88
2021/10/24 00:49:38;;;;;;;47.88;25.83;;;0.40;99.90;;;;;;6284684;22;20030;-88
2021/10/24 00:52:28;;;;;;;52.25;25.75;;;0.40;99.90;;;;;;6306341;22;20116;-87
2021/10/24 00:55:16;;;;;;;54.20;26.98;;;0.40;99.90;;;;;;6284150;22;20039;-88
2021/10/24 00:58:06;;;;;;;57.85;26.20;;;0.30;99.90;;;;;;6283742;22;20115;-88
2021/10/24 01:00:54;;;;;;;53.28;27.40;;;0.30;99.90;;;;;;6283213;22;20031;-87
2021/10/24 01:03:43;;;;;;;52.47;26.55;;;0.20;99.90;;;;;;6262516;22;20406;-87
2021/10/24 01:06:35;;;;;;;53.80;25.40;;;0.20;99.90;;;;;;6282067;22;20390;-89
2021/10/24 01:09:25;;;;;;;50.17;25.15;;;0.10;99.90;;;;;;6306958;22;20085;-87
2021/10/24 01:12:15;;;;;;;53.95;26.05;;;0.10;99.90;;;;;;6284112;22;20031;-85
2021/10/24 01:15:04;;;;;;;48.78;24.92;;;0.10;99.90;;;;;;6315114;22;20349;-86
2021/10/24 01:17:52;;;;;;;53.67;25.90;;;0.10;99.90;;;;;;6264811;22;20080;-87
2021/10/24 01:20:39;;;;;;;52.47;25.15;;;0.20;99.90;;;;;;6283961;22;20078;-86
2021/10/24 01:23:28;;;;;;;54.55;26.75;;;0.10;99.90;;;;;;6279949;22;20027;-88
2021/10/24 01:26:19;;;;;;;47.42;25.05;;;0.10;99.90;;;;;;6285187;22;20140;-88
2021/10/24 01:29:10;;;;;;;50.17;26.63;;;0.10;99.90;;;;;;6285967;22;20039;-86
2021/10/24 01:32:00;;;;;;;59.53;27.40;;;0.10;99.90;;;;;;6312026;22;20031;-86
2021/10/24 01:34:48;;;;;;;53.58;27.35;;;0.10;99.90;;;;;;6314025;22;20023;-85
2021/10/24 01:37:39;;;;;;;56.55;26.40;;;0.10;99.90;;;;;;6314938;22;20027;-87
2021/10/24 01:40:27;;;;;;;53.80;26.65;;;0.10;99.90;;;;;;6307722;22;20077;-87
2021/10/24 01:43:14;;;;;;;54.08;26.65;;;0.10;99.90;;;;;;6303413;22;20042;-86
2021/10/24 01:46:03;;;;;;;61.42;26.13;;;0.10;99.90;;;;;;6282995;22;20161;-86
2021/10/24 01:48:51;;;;;;;52.80;25.42;;;0.00;99.90;;;;;;6303933;22;20077;-88
2021/10/24 01:51:38;;;;;;;48.38;24.98;;;0.00;99.90;;;;;;6282367;22;20050;-86
2021/10/24 01:54:25;;;;;;;57.33;25.75;;;0.00;99.90;;;;;;6285382;22;20102;-87
2021/10/24 01:57:14;;;;;;;55.20;26.95;;;0.00;99.90;;;;;;6281431;22;20264;-87
2021/10/24 02:00:02;;;;;;;55.13;25.88;;;0.00;99.90;;;;;;6263792;22;20084;-87
2021/10/24 02:02:52;;;;;;;48.15;26.08;;;0.00;99.90;;;;;;6306664;22;20102;-87
2021/10/24 02:05:41;;;;;;;58.78;27.40;;;-0.10;99.90;;;;;;6307215;22;20181;-87
2021/10/24 02:08:29;;;;;;;56.70;27.02;;;-0.10;99.90;;;;;;6304124;22;20108;-87
2021/10/24 02:11:16;;;;;;;55.05;25.33;;;-0.10;99.90;;;;;;6306507;22;20058;-89
2021/10/24 02:14:03;;;;;;;50.72;25.50;;;-0.10;99.90;;;;;;6283226;22;20023;-88
2021/10/24 02:16:51;;;;;;;54.97;26.35;;;-0.10;99.90;;;;;;6307326;22;20023;-88
2021/10/24 02:19:39;;;;;;;50.40;26.02;;;-0.10;99.90;;;;;;6284707;22;20054;-88
2021/10/24 02:22:27;;;;;;;54.63;24.95;;;-0.10;99.90;;;;;;6263677;22;20387;-88
2021/10/24 02:25:17;;;;;;;49.80;25.05;;;-0.10;99.90;;;;;;6308175;22;20027;-88
2021/10/24 02:28:07;;;;;;;60.70;26.90;;;-0.10;99.90;;;;;;6306639;22;20023;-87
2021/10/24 02:30:55;;;;;;;52.60;25.23;;;-0.10;99.90;;;;;;6307694;22;20027;-88
2021/10/24 02:33:42;;;;;;;50.67;25.20;;;-0.10;99.90;;;;;;6285927;22;20077;-87
2021/10/24 02:36:29;;;;;;;55.38;26.42;;;-0.10;99.90;;;;;;6310207;22;20117;-88
2021/10/24 02:39:17;;;;;;;51.25;24.70;;;-0.10;99.90;;;;;;6307435;22;20023;-88
2021/10/24 02:42:05;;;;;;;46.88;23.35;;;0.00;99.90;;;;;;6305048;22;20030;-87
2021/10/24 02:44:54;;;;;;;50.20;24.85;;;-0.10;99.90;;;;;;6307144;22;20031;-88
2021/10/24 02:47:41;;;;;;;42.72;22.60;;;-0.10;99.90;;;;;;6284942;22;20030;-88
2021/10/24 02:50:30;;;;;;;52.10;23.77;;;-0.10;99.90;;;;;;6306415;22;20039;-87
2021/10/24 02:53:17;;;;;;;49.70;23.70;;;-0.20;99.90;;;;;;6307172;22;20174;-88
2021/10/24 02:56:04;;;;;;;53.25;21.40;;;-0.20;99.90;;;;;;6264503;22;20027;-88
2021/10/24 02:58:52;;;;;;;45.33;21.77;;;-0.20;99.90;;;;;;6305453;22;20031;-88
2021/10/24 03:01:39;;;;;;;42.55;21.15;;;-0.30;99.90;;;;;;6306285;22;20031;-87
2021/10/24 03:04:29;;;;;;;43.60;20.98;;;-0.30;99.90;;;;;;6283495;22;20062;-88
2021/10/24 03:07:17;;;;;;;42.08;21.00;;;-0.30;99.90;;;;;;6307303;22;20034;-86
2021/10/24 03:10:05;;;;;;;52.10;21.08;;;-0.30;99.90;;;;;;6286815;22;20504;-87
2021/10/24 03:12:53;;;;;;;44.08;21.05;;;-0.30;99.90;;;;;;6312572;22;20054;-87
2021/10/24 03:15:41;;;;;;;47.85;21.55;;;-0.30;99.90;;;;;;6307241;22;20027;-89
2021/10/24 03:18:28;;;;;;;50.42;22.27;;;-0.30;99.90;;;;;;6305100;22;20033;-89
2021/10/24 03:21:15;;;;;;;45.17;19.90;;;-0.30;99.90;;;;;;6306698;22;20050;-89
2021/10/24 03:24:04;;;;;;;48.70;21.40;;;-0.40;99.90;;;;;;6305036;22;20141;-89
2021/10/24 03:26:52;;;;;;;51.20;22.40;;;-0.40;99.90;;;;;;6283605;22;20031;-87
2021/10/24 03:29:40;;;;;;;46.40;21.45;;;-0.40;99.90;;;;;;6284333;22;20080;-89
2021/10/24 03:32:27;;;;;;;43.35;19.83;;;-0.40;99.90;;;;;;6281170;22;20031;-88
2021/10/24 03:35:17;;;;;;;39.00;20.70;;;-0.40;99.90;;;;;;6307251;22;20031;-89
2021/10/24 03:38:04;;;;;;;46.35;21.40;;;-0.40;99.90;;;;;;6281160;22;20102;-88
2021/10/24 03:40:51;;;;;;;39.60;19.58;;;-0.40;99.90;;;;;;6264871;22;20124;-89
2021/10/24 03:43:39;;;;;;;48.85;20.65;;;-0.40;99.90;;;;;;6284406;22;20109;-89
2021/10/24 03:46:28;;;;;;;40.72;20.20;;;-0.40;99.90;;;;;;6309194;22;20148;-89
2021/10/24 03:49:18;;;;;;;46.03;19.38;;;-0.50;99.90;;;;;;6316752;22;20045;-86
2021/10/24 03:52:08;;;;;;;35.13;18.45;;;-0.50;99.90;;;;;;6293165;22;20072;-90
2021/10/24 03:54:55;;;;;;;41.35;19.63;;;-0.50;99.90;;;;;;6319596;22;20088;-88
2021/10/24 03:57:45;;;;;;;46.00;20.98;;;-0.50;99.90;;;;;;6318182;22;20033;-89
2021/10/24 04:00:33;;;;;;;40.97;18.92;;;-0.40;99.90;;;;;;6307444;22;20317;-88
2021/10/24 04:03:20;;;;;;;41.38;19.17;;;-0.50;99.90;;;;;;6282986;22;20089;-88
2021/10/24 04:06:09;;;;;;;51.80;22.25;;;-0.50;99.90;;;;;;6308740;22;20027;-87
2021/10/24 04:08:59;;;;;;;40.50;20.40;;;-0.50;99.90;;;;;;6284539;22;20047;-88
2021/10/24 04:11:47;;;;;;;41.50;21.02;;;-0.60;99.90;;;;;;6285411;22;20035;-89
2021/10/24 04:14:34;;;;;;;40.90;20.73;;;-0.60;99.90;;;;;;6305560;22;20446;-88
2021/10/24 04:17:21;;;;;;;43.42;19.55;;;-0.60;99.90;;;;;;6306748;22;20282;-88
2021/10/24 04:20:13;;;;;;;46.88;20.83;;;-0.50;99.90;;;;;;6304020;22;20035;-88
2021/10/24 04:23:01;;;;;;;46.30;21.58;;;-0.60;99.90;;;;;;6306197;22;20058;-87
2021/10/24 04:25:51;;;;;;;50.83;18.95;;;-0.60;99.90;;;;;;6289416;22;20129;-87
2021/10/24 04:28:41;;;;;;;48.58;20.90;;;-0.60;99.90;;;;;;6319727;22;20022;-87
2021/10/24 04:31:29;;;;;;;44.35;20.42;;;-0.60;99.90;;;;;;6314927;22;20122;-88
2021/10/24 04:34:21;;;;;;;47.15;20.75;;;-0.50;99.90;;;;;;6324216;22;20034;-87
2021/10/24 04:37:08;;;;;;;34.30;15.20;;;-0.40;99.90;;;;;;6325758;22;20023;-89
2021/10/24 04:39:55;;;;;;;48.65;20.98;;;-0.30;99.90;;;;;;6280084;22;20037;-88
2021/10/24 04:42:42;;;;;;;55.25;21.63;;;-0.30;99.90;;;;;;6305514;22;20041;-88
2021/10/24 04:45:37;;;;;;;48.72;21.08;;;-0.40;99.90;;;;;;6287096;22;20014;-88
2021/10/24 04:48:25;;;;;;;52.42;21.58;;;-0.40;99.90;;;;;;6256093;22;20028;-88
2021/10/24 04:51:12;;;;;;;48.10;20.00;;;-0.50;99.90;;;;;;6318614;22;20122;-88
2021/10/24 04:53:59;;;;;;;50.63;19.83;;;-0.50;99.90;;;;;;6293814;22;20059;-88
2021/10/24 04:56:46;;;;;;;49.30;22.02;;;-0.50;99.90;;;;;;6270693;22;20030;-88
2021/10/24 04:59:36;;;;;;;45.60;19.83;;;-0.60;99.90;;;;;;6304700;22;20112;-88
2021/10/24 05:02:26;;;;;;;40.08;18.65;;;-0.60;99.90;;;;;;6303311;22;20078;-88
2021/10/24 05:05:15;;;;;;;55.08;20.65;;;-0.60;99.90;;;;;;6283970;22;20034;-88
2021/10/24 05:08:04;;;;;;;50.42;20.98;;;-0.60;99.90;;;;;;6302200;22;20023;-88
2021/10/24 05:10:51;;;;;;;43.42;20.42;;;-0.60;99.90;;;;;;6283435;22;20081;-88
2021/10/24 05:13:39;;;;;;;47.67;22.23;;;-0.60;99.90;;;;;;6282942;22;20031;-88
2021/10/24 05:16:29;;;;;;;41.63;20.67;;;-0.60;99.90;;;;;;6304088;22;20047;-88
2021/10/24 05:19:19;;;;;;;49.80;20.92;;;-0.60;99.90;;;;;;6283566;22;20106;-88
2021/10/24 05:22:09;;;;;;;46.70;21.05;;;-0.70;99.90;;;;;;6306105;22;20119;-89
2021/10/24 05:24:59;;;;;;;44.80;20.25;;;-0.70;99.90;;;;;;6264442;22;20027;-88
2021/10/24 05:27:54;;;;;;;42.20;20.05;;;-0.70;99.90;;;;;;6305473;22;20081;-88
2021/10/24 05:30:44;;;;;;;43.67;19.35;;;-0.80;99.90;;;;;;6269449;22;20434;-88
2021/10/24 05:33:31;;;;;;;51.00;20.55;;;-0.80;99.90;;;;;;6289619;22;20074;-88
2021/10/24 05:36:19;;;;;;;46.45;20.20;;;-0.80;99.90;;;;;;6282961;22;20405;-88
2021/10/24 05:39:06;;;;;;;43.70;20.40;;;-0.80;99.90;;;;;;6283695;22;20386;-87
2021/10/24 06:06:50;;;;;;;54.20;25.05;;;-0.60;99.90;;;;;;6305762;22;20018;-82
2021/10/24 06:09:42;;;;;;;63.70;26.05;;;-0.60;99.90;;;;;;6307087;22;20046;-82
2021/10/24 06:15:22;;;;;;;57.33;28.50;;;-0.50;99.90;;;;;;6307198;22;20072;-86
2021/10/24 06:18:10;;;;;;;70.32;27.55;;;-0.50;99.90;;;;;;6285544;22;20019;-87
2021/10/24 06:20:59;;;;;;;66.18;27.35;;;-0.50;99.90;;;;;;6286107;22;20026;-88
2021/10/24 06:23:46;;;;;;;71.30;29.02;;;-0.50;99.90;;;;;;6308882;22;20050;-88
2021/10/24 06:26:37;;;;;;;74.18;30.08;;;-0.40;99.90;;;;;;6309847;22;20027;-85
2021/10/24 06:29:24;;;;;;;63.80;28.98;;;-0.40;99.90;;;;;;6286594;22;20077;-87
2021/10/24 06:32:11;;;;;;;81.10;33.67;;;-0.30;99.90;;;;;;6284649;22;20023;-86
2021/10/24 06:35:01;;;;;;;81.15;35.08;;;-0.20;99.90;;;;;;6306822;22;20098;-86
2021/10/24 06:37:48;;;;;;;75.30;34.35;;;-0.10;99.90;;;;;;6306626;22;20019;-86
2021/10/24 06:40:36;;;;;;;80.22;35.15;;;0.00;99.90;;;;;;6308921;22;20023;-85
2021/10/24 06:43:25;;;;;;;71.60;32.08;;;0.10;99.90;;;;;;6282579;22;20066;-86
2021/10/24 06:46:12;;;;;;;79.40;34.65;;;0.20;99.90;;;;;;6304060;22;20121;-85
2021/10/24 06:48:59;;;;;;;78.10;35.13;;;0.30;99.90;;;;;;6306047;22;20410;-85
2021/10/24 06:51:46;;;;;;;80.43;34.97;;;0.50;99.90;;;;;;6308178;22;20349;-86
2021/10/24 06:54:34;;;;;;;78.68;34.75;;;0.80;99.90;;;;;;6306877;22;20024;-86
2021/10/24 06:57:24;;;;;;;90.68;33.30;;;1.30;99.90;;;;;;6307175;22;20439;-83
2021/10/24 07:00:12;;;;;;;69.53;31.25;;;1.90;99.90;;;;;;6305705;22;20073;-86
2021/10/24 07:03:02;;;;;;;72.50;31.75;;;2.60;99.90;;;;;;6283309;22;20023;-87
2021/10/24 07:05:49;;;;;;;54.95;26.73;;;3.30;99.90;;;;;;6308627;22;20034;-87
2021/10/24 07:08:36;;;;;;;42.88;22.23;;;3.90;99.90;;;;;;6307102;22;20401;-87
2021/10/24 07:11:24;;;;;;;39.38;21.38;;;4.60;99.90;;;;;;6310157;22;20023;-86
2021/10/24 07:14:12;;;;;;;36.75;20.38;;;4.60;99.90;;;;;;6303993;22;20062;-87
2021/10/24 07:16:59;;;;;;;33.35;18.75;;;4.30;99.90;;;;;;6307153;22;20460;-87
2021/10/24 07:19:49;;;;;;;30.80;17.17;;;4.20;99.90;;;;;;6265413;22;20076;-87
2021/10/24 07:22:38;;;;;;;31.10;17.50;;;4.60;99.90;;;;;;6304730;22;20406;-87
2021/10/24 07:25:26;;;;;;;23.20;16.77;;;5.10;99.90;;;;;;6306008;22;20379;-85
2021/10/24 07:28:16;;;;;;;24.35;15.77;;;5.20;99.90;;;;;;6284578;22;20026;-87
2021/10/24 07:31:04;;;;;;;26.88;17.35;;;5.40;99.90;;;;;;6306244;22;20027;-86
2021/10/24 07:33:51;;;;;;;27.15;16.10;;;5.30;99.90;;;;;;6308817;22;20054;-87
2021/10/24 07:36:42;;;;;;;21.30;14.30;;;5.10;99.90;;;;;;6286033;22;20068;-86
2021/10/24 07:39:33;;;;;;;23.33;13.05;;;4.90;99.90;;;;;;6306610;22;20019;-87
2021/10/24 07:42:20;;;;;;;22.90;13.77;;;4.70;99.90;;;;;;6286380;22;20049;-87
2021/10/24 07:45:10;;;;;;;22.65;14.02;;;4.60;99.90;;;;;;6310048;22;20074;-87
2021/10/24 07:47:58;;;;;;;21.55;13.38;;;4.80;99.90;;;;;;6308933;22;20027;-87
2021/10/24 07:50:45;;;;;;;21.48;12.15;;;5.00;99.90;;;;;;6287821;22;20096;-87
2021/10/24 07:53:35;;;;;;;20.77;10.68;;;5.40;99.90;;;;;;6308448;22;20027;-88
2021/10/24 07:56:24;;;;;;;15.48;8.82;;;5.90;99.90;;;;;;6308583;22;20414;-87
2021/10/24 07:59:12;;;;;;;15.43;8.80;;;6.10;99.90;;;;;;6283260;22;20038;-87
2021/10/24 08:02:02;;;;;;;16.15;8.57;;;6.30;99.90;;;;;;6283845;22;20393;-87
2021/10/24 08:04:53;;;;;;;17.35;7.85;;;6.40;99.90;;;;;;6308053;22;20031;-86
2021/10/24 08:07:43;;;;;;;13.60;7.95;;;6.40;99.90;;;;;;6308794;22;20058;-88
2021/10/24 08:10:30;;;;;;;20.20;8.82;;;6.30;99.90;;;;;;6309109;22;20023;-87
2021/10/24 08:13:17;;;;;;;12.00;7.50;;;6.30;99.90;;;;;;6306982;22;20027;-87
2021/10/24 08:16:07;;;;;;;15.43;8.48;;;6.20;99.90;;;;;;6284214;22;20108;-86
2021/10/24 08:18:57;;;;;;;14.45;8.82;;;6.20;99.90;;;;;;6286664;22;20106;-87
2021/10/24 08:21:48;;;;;;;15.43;9.07;;;6.20;99.90;;;;;;6283555;22;20314;-87
2021/10/24 08:24:37;;;;;;;12.00;8.23;;;6.40;99.90;;;;;;6310784;22;20053;-88
2021/10/24 08:27:27;;;;;;;21.42;8.15;;;6.50;99.90;;;;;;6308943;22;20038;-88
2021/10/24 08:30:23;;;;;;;13.68;7.53;;;6.60;99.90;;;;;;6303573;22;20168;-88
2021/10/24 08:33:12;;;;;;;9.90;6.70;;;6.80;99.90;;;;;;6312661;22;20023;-86
2021/10/24 08:36:01;;;;;;;10.85;7.03;;;6.90;99.90;;;;;;6288679;22;20085;-86
2021/10/24 08:38:48;;;;;;;9.23;6.13;;;7.10;99.90;;;;;;6312786;22;20023;-87
2021/10/24 08:41:40;;;;;;;9.38;6.22;;;7.40;99.90;;;;;;6318330;22;20057;-87
2021/10/24 08:44:31;;;;;;;15.70;6.68;;;8.10;99.90;;;;;;6301143;22;20023;-86
2021/10/24 08:47:18;;;;;;;14.32;6.32;;;8.90;99.90;;;;;;6316370;22;20460;-85
2021/10/24 08:50:07;;;;;;;11.63;6.22;;;9.50;99.90;;;;;;6305173;22;20023;-86
2021/10/24 08:52:58;;;;;;;9.50;5.68;;;9.50;99.90;;;;;;6304110;22;20034;-87
2021/10/24 08:55:50;;;;;;;9.13;6.05;;;9.40;99.90;;;;;;6301627;22;20059;-88
2021/10/24 08:58:40;;;;;;;11.77;5.85;;;9.30;99.90;;;;;;6304123;22;20416;-87
2021/10/24 09:01:28;;;;;;;12.57;5.85;;;9.30;99.90;;;;;;6281117;22;20462;-87
2021/10/24 09:04:16;;;;;;;7.50;5.10;;;9.40;99.90;;;;;;6306295;22;20031;-88
2021/10/24 09:07:03;;;;;;;8.32;5.28;;;9.60;99.90;;;;;;6304247;22;20038;-86
2021/10/24 09:09:50;;;;;;;10.02;5.82;;;9.90;99.90;;;;;;6305620;22;20030;-86
2021/10/24 09:12:57;;;;;;;10.10;5.32;;;10.20;99.90;;;;;;6280719;22;20341;-86
2021/10/24 09:16:05;;;;;;;7.65;4.75;;;10.80;99.90;;;;;;6305414;22;20456;-88
2021/10/24 09:18:53;;;;;;;8.40;5.22;;;11.60;98.10;;;;;;6306382;22;20344;-86
2021/10/24 09:21:40;;;;;;;9.35;4.65;;;12.10;94.50;;;;;;6280831;22;20077;-87
2021/10/24 09:24:29;;;;;;;9.68;4.93;;;12.70;92.60;;;;;;6304965;22;20124;-88
2021/10/24 09:27:17;;;;;;;9.60;4.85;;;13.70;87.70;;;;;;6283208;22;20095;-88
2021/10/24 09:30:25;;;;;;;10.30;4.78;;;14.70;79.90;;;;;;6280501;22;20060;-88
2021/10/24 09:33:17;;;;;;;8.30;4.25;;;14.80;74.60;;;;;;6281013;22;20023;-88
2021/10/24 09:36:07;;;;;;;7.35;4.82;;;15.60;72.00;;;;;;6307603;22;20046;-88
2021/10/24 09:39:07;;;;;;;7.13;4.10;;;15.80;67.60;;;;;;6287448;22;20078;-87
2021/10/24 09:42:26;;;;;;;8.23;4.38;;;16.20;64.00;;;;;;6307819;22;20080;-89
2021/10/24 09:45:15;;;;;;;7.20;3.85;;;16.60;62.00;;;;;;6286133;22;20115;-89
2021/10/24 09:48:09;;;;;;;6.93;3.80;;;16.60;60.50;;;;;;6307040;22;20031;-88
2021/10/24 09:50:59;;;;;;;6.15;3.58;;;16.60;59.90;;;;;;6305371;22;20406;-88
2021/10/24 09:53:47;;;;;;;7.40;4.00;;;16.30;60.90;;;;;;6306173;22;20085;-88
2021/10/24 09:56:35;;;;;;;6.53;3.83;;;16.40;60.50;;;;;;6305826;22;20019;-89
2021/10/24 09:59:22;;;;;;;6.78;3.78;;;16.80;59.30;;;;;;6283223;22;20046;-87
2021/10/24 10:02:13;;;;;;;8.68;3.78;;;17.60;57.70;;;;;;6262625;22;20114;-88
2021/10/24 10:05:03;;;;;;;8.27;3.88;;;18.20;56.10;;;;;;6285703;22;20149;-89
2021/10/24 10:07:52;;;;;;;5.57;3.58;;;18.50;54.30;;;;;;6304628;22;20027;-89
2021/10/24 10:11:02;;;;;;;7.68;3.67;;;19.10;53.20;;;;;;6307628;22;20081;-88
2021/10/24 10:14:15;;;;;;;4.85;3.00;;;19.90;51.10;;;;;;6288439;22;20100;-88
2021/10/24 10:17:08;;;;;;;5.80;3.38;;;20.30;50.30;;;;;;6293513;22;20073;-88
2021/10/24 10:20:19;;;;;;;3.92;2.58;;;21.10;48.10;;;;;;6322270;22;20023;-88
2021/10/24 10:23:12;;;;;;;5.45;2.83;;;21.70;46.70;;;;;;6297209;22;20024;-89
2021/10/24 10:26:39;;;;;;;5.93;3.17;;;21.60;45.30;;;;;;6274434;22;20061;-89
2021/10/24 10:29:57;;;;;;;4.13;2.63;;;21.30;45.40;;;;;;6296771;22;20398;-88
2021/10/24 10:32:51;;;;;;;4.70;2.83;;;21.30;45.70;;;;;;6318736;22;20077;-89
2021/10/24 10:35:53;;;;;;;5.22;2.70;;;21.30;45.90;;;;;;6317408;22;20027;-89
2021/10/24 10:38:43;;;;;;;3.03;2.45;;;22.30;44.30;;;;;;6319603;22;20325;-87
2021/10/24 10:41:37;;;;;;;5.85;2.95;;;21.40;44.60;;;;;;6290696;22;20027;-88
2021/10/24 10:44:24;;;;;;;5.55;2.90;;;21.10;45.60;;;;;;6286055;22;20037;-88
2021/10/24 10:47:50;;;;;;;4.18;2.50;;;21.50;45.60;;;;;;6286721;22;20031;-89
2021/10/24 10:50:46;;;;;;;4.30;2.80;;;22.00;44.80;;;;;;6258548;22;20038;-87
2021/10/24 10:53:33;;;;;;;5.57;2.65;;;23.70;40.70;;;;;;6306799;22;20351;-88
2021/10/24 10:56:29;;;;;;;5.40;2.70;;;22.80;42.40;;;;;;6309605;22;20039;-88
2021/10/24 10:59:35;;;;;;;6.20;2.72;;;22.30;43.30;;;;;;6306822;22;20084;-88
2021/10/24 11:02:28;;;;;;;3.85;2.55;;;22.10;43.90;;;;;;6285609;22;20019;-88
2021/10/24 11:05:38;;;;;;;5.90;2.60;;;21.80;43.90;;;;;;6284589;22;20031;-89
2021/10/24 11:08:53;;;;;;;4.03;2.53;;;21.60;43.90;;;;;;6283553;22;20031;-88
2021/10/24 11:11:47;;;;;;;7.25;2.47;;;22.00;44.30;;;;;;6309379;22;20023;-89
2021/10/24 11:14:48;;;;;;;4.30;2.78;;;22.60;42.50;;;;;;6307088;22;20023;-90
2021/10/24 11:17:38;;;;;;;3.97;2.30;;;23.10;41.40;;;;;;6306571;22;20031;-89
2021/10/24 11:20:47;;;;;;;4.85;2.60;;;23.00;42.40;;;;;;6309696;22;20023;-89
2021/10/24 11:23:38;;;;;;;4.65;2.58;;;23.10;40.60;;;;;;6309379;22;20280;-87
2021/10/24 11:26:25;;;;;;;5.70;2.78;;;22.70;41.00;;;;;;6310319;22;20073;-89
2021/10/24 11:29:13;;;;;;;4.32;2.30;;;22.70;42.20;;;;;;6265911;22;20066;-86
2021/10/24 11:32:26;;;;;;;3.50;2.10;;;23.40;40.40;;;;;;6265511;22;20113;-89
2021/10/24 11:35:16;;;;;;;5.25;2.47;;;23.80;40.40;;;;;;6285760;22;20027;-88
2021/10/24 11:38:12;;;;;;;5.30;2.50;;;23.60;40.10;;;;;;6310217;22;20134;-88
2021/10/24 11:41:16;;;;;;;4.47;2.65;;;23.10;42.60;;;;;;6306605;22;20098;-88
2021/10/24 11:44:09;;;;;;;4.88;2.50;;;23.60;40.50;;;;;;6309709;22;20027;-88
2021/10/24 11:47:12;;;;;;;;;;;25.00;39.60;;;;;;6289336;22;20030;-88
2021/10/24 11:50:02;;;;;;;5.13;2.55;;;25.30;36.70;;;;;;6308939;22;19960;-87
2021/10/24 11:53:02;;;;;;;3.78;2.17;;;25.50;38.70;;;;;;6307509;22;20072;-89
2021/10/24 11:55:56;;;;;;;3.50;2.42;;;25.00;38.50;;;;;;6286445;22;20019;-88
2021/10/24 11:59:11;;;;;;;3.42;2.13;;;24.70;39.00;;;;;;6287491;22;20071;-88
2021/10/24 12:02:09;;;;;;;4.47;2.22;;;25.20;37.80;;;;;;6312510;22;20087;-88
2021/10/24 12:04:57;;;;;;;4.35;2.20;;;25.20;37.10;;;;;;6292868;22;20079;-88
2021/10/24 12:07:54;;;;;;;4.25;2.47;;;24.90;36.30;;;;;;6314563;22;20031;-89
2021/10/24 12:10:51;;;;;;;2.80;2.03;;;24.30;39.30;;;;;;6310016;22;20104;-88
2021/10/24 12:13:42;;;;;;;6.22;2.80;;;25.30;37.00;;;;;;6309310;22;20031;-90
2021/10/24 12:16:37;;;;;;;4.40;2.30;;;25.30;36.80;;;;;;6311380;22;20084;-89
2021/10/24 12:19:36;;;;;;;4.82;2.30;;;25.00;37.80;;;;;;6290587;22;20050;-88
2021/10/24 12:22:34;;;;;;;4.20;2.40;;;25.10;37.90;;;;;;6277430;22;20043;-88
2021/10/24 12:25:41;;;;;;;4.97;2.33;;;25.40;36.80;;;;;;6255792;22;20337;-87
2021/10/24 12:28:34;;;;;;;3.22;1.95;;;25.00;38.70;;;;;;6277432;22;20027;-88
2021/10/24 12:31:28;;;;;;;4.32;2.55;;;25.60;37.20;;;;;;6276152;22;20098;-90
2021/10/24 12:34:15;;;;;;;4.85;2.00;;;25.20;37.10;;;;;;6276778;22;20334;-89
2021/10/24 12:37:13;;;;;;;4.20;2.13;;;24.80;38.40;;;;;;6254338;22;20027;-89
2021/10/24 12:40:18;;;;;;;3.53;1.95;;;25.40;37.00;;;;;;6277709;22;20024;-89
2021/10/24 12:43:13;;;;;;;2.85;2.13;;;25.90;35.70;;;;;;6276266;22;20156;-89
2021/10/24 12:46:04;;;;;;;4.30;2.30;;;25.50;36.30;;;;;;6256234;22;20439;-88
2021/10/24 12:48:52;;;;;;;3.53;2.05;;;25.10;36.10;;;;;;6256720;22;20039;-90
2021/10/24 12:51:44;;;;;;;4.30;2.03;;;25.30;36.90;;;;;;6268475;22;20074;-89
2021/10/24 12:54:34;;;;;;;4.03;2.35;;;25.30;37.20;;;;;;6287269;22;20095;-85
2021/10/24 12:57:24;;;;;;;3.25;1.88;;;25.80;36.60;;;;;;6278406;22;20023;-89
2021/10/24 13:00:15;;;;;;;5.90;2.28;;;26.20;36.10;;;;;;6275335;22;20051;-88
2021/10/24 13:03:04;;;;;;;2.67;2.05;;;26.10;34.80;;;;;;6276298;22;20042;-89
2021/10/24 13:05:52;;;;;;;3.13;1.95;;;25.30;35.70;;;;;;6235416;22;20052;-89
2021/10/24 13:08:43;;;;;;;4.40;2.47;;;25.00;37.40;;;;;;6275471;22;20244;-89
2021/10/24 13:11:35;;;;;;;4.13;2.40;;;24.70;37.50;;;;;;6279110;22;20031;-89
2021/10/24 13:14:22;;;;;;;4.45;2.38;;;25.00;37.60;;;;;;6273785;22;20431;-88
2021/10/24 13:17:12;;;;;;;2.78;1.90;;;25.40;36.70;;;;;;6276447;22;20023;-87
2021/10/24 13:20:01;;;;;;;3.58;2.17;;;25.30;36.60;;;;;;6277405;22;20031;-86
2021/10/24 13:23:05;;;;;;;2.60;1.95;;;25.10;37.10;;;;;;6284783;22;20426;-88
2021/10/24 13:25:53;;;;;;;4.88;2.50;;;25.10;36.80;;;;;;6267205;22;20028;-88
2021/10/24 13:29:05;;;;;;;5.13;2.38;;;25.40;37.60;;;;;;6288526;22;20028;-90
2021/10/24 13:32:21;;;;;;;2.78;2.00;;;26.00;36.30;;;;;;6294881;22;20461;-88
2021/10/24 13:35:11;;;;;;;5.22;2.58;;;25.80;35.80;;;;;;6292103;22;20057;-90
2021/10/24 13:38:01;;;;;;;5.55;2.60;;;25.20;36.00;;;;;;6271480;22;20048;-91
2021/10/24 13:41:06;;;;;;;4.47;2.13;;;24.50;37.20;;;;;;6251494;22;20030;-91
2021/10/24 13:43:57;;;;;;;2.97;1.95;;;24.10;39.20;;;;;;6280592;22;20031;-89
2021/10/24 13:47:01;;;;;;;6.57;2.50;;;24.70;38.20;;;;;;6279489;22;20161;-88
2021/10/24 13:49:52;;;;;;;4.05;2.35;;;24.90;38.00;;;;;;6295185;22;20045;-90
2021/10/24 13:52:40;;;;;;;3.70;2.42;;;25.20;37.50;;;;;;6268406;22;20084;-89
2021/10/24 13:55:28;;;;;;;4.68;2.60;;;25.10;37.30;;;;;;6268895;22;20111;-90
2021/10/24 13:58:16;;;;;;;4.05;2.63;;;24.90;36.90;;;;;;6269591;22;20019;-90
2021/10/24 14:01:06;;;;;;;5.90;2.13;;;25.20;36.10;;;;;;6288697;22;20019;-90
2021/10/24 14:03:57;;;;;;;3.65;1.92;;;25.20;36.90;;;;;;6281871;22;20016;-89
2021/10/24 14:06:48;;;;;;;4.90;3.00;;;25.90;36.30;;;;;;6238758;22;20035;-90
2021/10/24 14:09:40;;;;;;;5.97;2.30;;;25.70;35.90;;;;;;6261260;22;20094;-92
2021/10/24 14:12:30;;;;;;;3.60;1.95;;;25.80;35.80;;;;;;6256970;22;20051;-88
2021/10/24 14:15:18;;;;;;;4.78;2.33;;;25.90;36.00;;;;;;6277382;22;20347;-89
2021/10/24 14:18:11;;;;;;;4.65;2.72;;;25.60;36.40;;;;;;6275312;22;20024;-88
2021/10/24 14:20:58;;;;;;;6.45;2.70;;;24.90;36.90;;;;;;6274128;22;20032;-89
2021/10/24 14:23:48;;;;;;;5.07;2.13;;;24.40;39.00;;;;;;6278867;22;20028;-89
2021/10/24 14:26:40;;;;;;;3.20;2.17;;;25.10;37.10;;;;;;6277628;22;20051;-87
2021/10/24 14:29:45;;;;;;;6.53;2.10;;;24.50;37.80;;;;;;6277156;22;20027;-88
2021/10/24 14:32:32;;;;;;;7.50;2.17;;;23.50;38.50;;;;;;6280703;22;20105;-88
2021/10/24 14:35:19;;;;;;;4.45;2.45;;;22.60;40.20;;;;;;6260342;22;20078;-87
2021/10/24 14:38:11;;;;;;;6.60;2.78;;;22.60;40.30;;;;;;6261682;22;20023;-88
2021/10/24 14:40:59;;;;;;;2.90;2.40;;;22.50;41.50;;;;;;6262163;22;20411;-87
2021/10/24 14:43:46;;;;;;;4.65;2.63;;;22.80;40.60;;;;;;6280099;22;20020;-87
2021/10/24 14:46:36;;;;;;;4.97;2.70;;;22.60;41.00;;;;;;6258656;22;20031;-85
2021/10/24 14:49:27;;;;;;;4.90;2.83;;;22.30;41.40;;;;;;6276993;22;20438;-87
2021/10/24 14:56:42;;;;;;;3.60;2.60;;;22.30;42.40;;;;;;6283788;22;20242;-87
2021/10/24 15:08:03;;;;;;;4.65;2.60;;;22.90;41.20;;;;;;6231965;22;20119;-90
2021/10/24 15:10:51;;;;;;;4.47;2.70;;;22.20;43.30;;;;;;6294741;22;20038;-92
2021/10/24 15:13:52;;;;;;;5.32;3.17;;;22.20;43.40;;;;;;6278548;22;20032;-90
2021/10/24 15:23:20;;;;;;;8.30;3.50;;;22.10;42.90;;;;;;6219893;23;20371;-92
2021/10/24 15:26:52;;;;;;;;;;;;;;;;;;;;;
2021/10/24 15:30:03;;;;;;;5.85;3.38;;;22.20;43.00;;;;;;6117604;23;20182;-92
2021/10/24 15:33:11;;;;;;;;;;;;;;;;;;;;;